sensor_id;sensor_type;location;lat;lon;timestamp;P1;durP1;ratioP1;P2;durP2;ratioP2
55015;SDS011;40919;43.236;21.590;2023-09-30T00:00:04;0.50;;;0.50;;
55015;SDS011;40919;43.236;21.590;2023-09-30T00:02:33;0.50;;;0.50;;
55015;SDS011;40919;43.236;21.590;2023-09-30T00:04:59;0.93;;;0.70;;
55015;SDS011;40919;43.236;21.590;2023-09-30T00:07:25;0.50;;;0.50;;
55015;SDS011;40919;43.236;21.590;2023-09-30T00:09:51;0.77;;;0.77;;
55015;SDS011;40919;43.236;21.590;2023-09-30T00:12:17;0.50;;;0.50;;
55015;SDS011;40919;43.236;21.590;2023-09-30T00:14:44;0.60;;;0.60;;
55015;SDS011;40919;43.236;21.590;2023-09-30T00:17:10;0.60;;;0.60;;
55015;SDS011;40919;43.236;21.590;2023-09-30T00:19:36;0.50;;;0.50;;
55015;SDS011;40919;43.236;21.590;2023-09-30T00:22:02;0.50;;;0.50;;
55015;SDS011;40919;43.236;21.590;2023-09-30T00:24:28;0.50;;;0.50;;
55015;SDS011;40919;43.236;21.590;2023-09-30T00:26:55;0.70;;;0.70;;
55015;SDS011;40919;43.236;21.590;2023-09-30T00:29:21;0.50;;;0.50;;
55015;SDS011;40919;43.236;21.590;2023-09-30T00:31:47;0.60;;;0.60;;
55015;SDS011;40919;43.236;21.590;2023-09-30T00:34:13;0.60;;;0.60;;
55015;SDS011;40919;43.236;21.590;2023-09-30T00:36:40;0.50;;;0.50;;
55015;SDS011;40919;43.236;21.590;2023-09-30T00:39:06;0.50;;;0.50;;
55015;SDS011;40919;43.236;21.590;2023-09-30T00:41:33;0.60;;;0.60;;
55015;SDS011;40919;43.236;21.590;2023-09-30T00:43:59;0.60;;;0.60;;
55015;SDS011;40919;43.236;21.590;2023-09-30T00:46:29;0.60;;;0.60;;
55015;SDS011;40919;43.236;21.590;2023-09-30T00:48:57;0.50;;;0.50;;
55015;SDS011;40919;43.236;21.590;2023-09-30T00:51:23;0.60;;;0.60;;
55015;SDS011;40919;43.236;21.590;2023-09-30T00:53:50;0.50;;;0.50;;
55015;SDS011;40919;43.236;21.590;2023-09-30T00:56:18;0.50;;;0.50;;
55015;SDS011;40919;43.236;21.590;2023-09-30T00:58:45;0.52;;;0.52;;
55015;SDS011;40919;43.236;21.590;2023-09-30T01:01:11;0.60;;;0.60;;
55015;SDS011;40919;43.236;21.590;2023-09-30T01:03:38;0.50;;;0.50;;
55015;SDS011;40919;43.236;21.590;2023-09-30T01:06:04;0.60;;;0.60;;
55015;SDS011;40919;43.236;21.590;2023-09-30T01:08:31;0.60;;;0.60;;
55015;SDS011;40919;43.236;21.590;2023-09-30T01:10:59;0.63;;;0.60;;
55015;SDS011;40919;43.236;21.590;2023-09-30T01:13:33;0.63;;;0.60;;
55015;SDS011;40919;43.236;21.590;2023-09-30T01:16:05;0.90;;;0.90;;
55015;SDS011;40919;43.236;21.590;2023-09-30T01:18:32;0.55;;;0.55;;
55015;SDS011;40919;43.236;21.590;2023-09-30T01:20:59;0.60;;;0.60;;
55015;SDS011;40919;43.236;21.590;2023-09-30T01:23:28;0.63;;;0.63;;
55015;SDS011;40919;43.236;21.590;2023-09-30T01:25:54;0.70;;;0.70;;
55015;SDS011;40919;43.236;21.590;2023-09-30T01:28:20;0.50;;;0.50;;
55015;SDS011;40919;43.236;21.590;2023-09-30T01:30:48;0.60;;;0.60;;
55015;SDS011;40919;43.236;21.590;2023-09-30T01:33:14;0.57;;;0.57;;
55015;SDS011;40919;43.236;21.590;2023-09-30T01:35:44;0.70;;;0.70;;
55015;SDS011;40919;43.236;21.590;2023-09-30T01:38:10;0.73;;;0.70;;
55015;SDS011;40919;43.236;21.590;2023-09-30T01:40:36;0.50;;;0.50;;
55015;SDS011;40919;43.236;21.590;2023-09-30T01:43:03;0.60;;;0.60;;
55015;SDS011;40919;43.236;21.590;2023-09-30T01:45:29;0.50;;;0.50;;
55015;SDS011;40919;43.236;21.590;2023-09-30T01:47:55;0.60;;;0.60;;
55015;SDS011;40919;43.236;21.590;2023-09-30T01:50:21;0.60;;;0.60;;
55015;SDS011;40919;43.236;21.590;2023-09-30T01:52:47;0.60;;;0.60;;
55015;SDS011;40919;43.236;21.590;2023-09-30T01:55:14;0.60;;;0.60;;
55015;SDS011;40919;43.236;21.590;2023-09-30T01:57:40;0.50;;;0.50;;
55015;SDS011;40919;43.236;21.590;2023-09-30T02:00:06;0.50;;;0.50;;
55015;SDS011;40919;43.236;21.590;2023-09-30T02:02:37;0.60;;;0.60;;
55015;SDS011;40919;43.236;21.590;2023-09-30T02:05:04;0.50;;;0.50;;
55015;SDS011;40919;43.236;21.590;2023-09-30T02:07:33;0.50;;;0.50;;
55015;SDS011;40919;43.236;21.590;2023-09-30T02:09:59;0.57;;;0.57;;
55015;SDS011;40919;43.236;21.590;2023-09-30T02:12:26;0.55;;;0.55;;
55015;SDS011;40919;43.236;21.590;2023-09-30T02:14:57;0.70;;;0.65;;
55015;SDS011;40919;43.236;21.590;2023-09-30T02:17:24;0.60;;;0.60;;
55015;SDS011;40919;43.236;21.590;2023-09-30T02:19:50;0.75;;;0.70;;
55015;SDS011;40919;43.236;21.590;2023-09-30T02:22:18;0.55;;;0.55;;
55015;SDS011;40919;43.236;21.590;2023-09-30T02:24:44;0.60;;;0.60;;
55015;SDS011;40919;43.236;21.590;2023-09-30T02:27:10;0.65;;;0.60;;
55015;SDS011;40919;43.236;21.590;2023-09-30T02:29:36;0.70;;;0.70;;
55015;SDS011;40919;43.236;21.590;2023-09-30T02:32:03;0.60;;;0.60;;
55015;SDS011;40919;43.236;21.590;2023-09-30T02:34:30;0.70;;;0.70;;
55015;SDS011;40919;43.236;21.590;2023-09-30T02:36:56;0.60;;;0.60;;
55015;SDS011;40919;43.236;21.590;2023-09-30T02:39:25;0.50;;;0.50;;
55015;SDS011;40919;43.236;21.590;2023-09-30T02:41:51;0.60;;;0.60;;
55015;SDS011;40919;43.236;21.590;2023-09-30T02:44:17;0.50;;;0.50;;
55015;SDS011;40919;43.236;21.590;2023-09-30T02:46:44;0.60;;;0.60;;
55015;SDS011;40919;43.236;21.590;2023-09-30T02:49:10;0.50;;;0.50;;
55015;SDS011;40919;43.236;21.590;2023-09-30T02:51:36;0.70;;;0.70;;
55015;SDS011;40919;43.236;21.590;2023-09-30T02:54:02;0.65;;;0.57;;
55015;SDS011;40919;43.236;21.590;2023-09-30T02:56:29;0.50;;;0.50;;
55015;SDS011;40919;43.236;21.590;2023-09-30T02:58:56;0.50;;;0.50;;
55015;SDS011;40919;43.236;21.590;2023-09-30T03:01:24;0.50;;;0.50;;
55015;SDS011;40919;43.236;21.590;2023-09-30T03:03:51;0.50;;;0.50;;
55015;SDS011;40919;43.236;21.590;2023-09-30T03:06:17;0.60;;;0.60;;
55015;SDS011;40919;43.236;21.590;2023-09-30T03:08:44;0.50;;;0.50;;
55015;SDS011;40919;43.236;21.590;2023-09-30T03:11:11;0.40;;;0.40;;
55015;SDS011;40919;43.236;21.590;2023-09-30T03:13:38;0.60;;;0.60;;
55015;SDS011;40919;43.236;21.590;2023-09-30T03:16:07;0.60;;;0.60;;
55015;SDS011;40919;43.236;21.590;2023-09-30T03:18:34;0.50;;;0.50;;
55015;SDS011;40919;43.236;21.590;2023-09-30T03:21:00;0.55;;;0.55;;
55015;SDS011;40919;43.236;21.590;2023-09-30T03:23:27;0.40;;;0.40;;
55015;SDS011;40919;43.236;21.590;2023-09-30T03:25:59;0.60;;;0.60;;
55015;SDS011;40919;43.236;21.590;2023-09-30T03:28:26;0.50;;;0.50;;
55015;SDS011;40919;43.236;21.590;2023-09-30T03:30:52;0.50;;;0.50;;
55015;SDS011;40919;43.236;21.590;2023-09-30T03:33:18;0.60;;;0.60;;
55015;SDS011;40919;43.236;21.590;2023-09-30T03:35:44;0.60;;;0.60;;
55015;SDS011;40919;43.236;21.590;2023-09-30T03:38:11;0.60;;;0.60;;
55015;SDS011;40919;43.236;21.590;2023-09-30T03:40:38;0.60;;;0.60;;
55015;SDS011;40919;43.236;21.590;2023-09-30T03:43:04;0.60;;;0.60;;
55015;SDS011;40919;43.236;21.590;2023-09-30T03:45:31;0.60;;;0.60;;
55015;SDS011;40919;43.236;21.590;2023-09-30T03:48:02;0.60;;;0.60;;
55015;SDS011;40919;43.236;21.590;2023-09-30T03:50:28;0.50;;;0.50;;
55015;SDS011;40919;43.236;21.590;2023-09-30T03:53:04;0.60;;;0.60;;
55015;SDS011;40919;43.236;21.590;2023-09-30T03:55:34;0.50;;;0.50;;
55015;SDS011;40919;43.236;21.590;2023-09-30T03:58:02;0.50;;;0.50;;
55015;SDS011;40919;43.236;21.590;2023-09-30T04:00:29;0.52;;;0.52;;
55015;SDS011;40919;43.236;21.590;2023-09-30T04:02:55;0.52;;;0.52;;
55015;SDS011;40919;43.236;21.590;2023-09-30T04:05:25;0.50;;;0.50;;
55015;SDS011;40919;43.236;21.590;2023-09-30T04:07:54;0.50;;;0.50;;
55015;SDS011;40919;43.236;21.590;2023-09-30T04:10:21;0.60;;;0.60;;
55015;SDS011;40919;43.236;21.590;2023-09-30T04:12:50;0.52;;;0.50;;
55015;SDS011;40919;43.236;21.590;2023-09-30T04:15:17;0.60;;;0.60;;
55015;SDS011;40919;43.236;21.590;2023-09-30T04:17:43;0.50;;;0.50;;
55015;SDS011;40919;43.236;21.590;2023-09-30T04:20:10;0.57;;;0.57;;
55015;SDS011;40919;43.236;21.590;2023-09-30T04:22:41;0.60;;;0.60;;
55015;SDS011;40919;43.236;21.590;2023-09-30T04:25:11;0.50;;;0.50;;
55015;SDS011;40919;43.236;21.590;2023-09-30T04:27:37;0.50;;;0.50;;
55015;SDS011;40919;43.236;21.590;2023-09-30T04:30:03;0.80;;;0.80;;
55015;SDS011;40919;43.236;21.590;2023-09-30T04:32:34;0.60;;;0.60;;
55015;SDS011;40919;43.236;21.590;2023-09-30T04:35:02;0.60;;;0.60;;
55015;SDS011;40919;43.236;21.590;2023-09-30T04:37:28;0.70;;;0.70;;
55015;SDS011;40919;43.236;21.590;2023-09-30T04:39:54;0.60;;;0.60;;
55015;SDS011;40919;43.236;21.590;2023-09-30T04:42:21;0.70;;;0.70;;
55015;SDS011;40919;43.236;21.590;2023-09-30T04:44:50;0.60;;;0.60;;
55015;SDS011;40919;43.236;21.590;2023-09-30T04:47:16;0.60;;;0.60;;
55015;SDS011;40919;43.236;21.590;2023-09-30T04:49:44;0.50;;;0.50;;
55015;SDS011;40919;43.236;21.590;2023-09-30T04:52:10;0.60;;;0.60;;
55015;SDS011;40919;43.236;21.590;2023-09-30T04:54:36;0.50;;;0.50;;
55015;SDS011;40919;43.236;21.590;2023-09-30T04:57:02;0.50;;;0.50;;
55015;SDS011;40919;43.236;21.590;2023-09-30T04:59:28;0.43;;;0.43;;
55015;SDS011;40919;43.236;21.590;2023-09-30T05:01:55;0.60;;;0.60;;
55015;SDS011;40919;43.236;21.590;2023-09-30T05:04:21;0.60;;;0.60;;
55015;SDS011;40919;43.236;21.590;2023-09-30T05:06:51;0.55;;;0.55;;
55015;SDS011;40919;43.236;21.590;2023-09-30T05:09:17;0.50;;;0.50;;
55015;SDS011;40919;43.236;21.590;2023-09-30T05:11:43;0.60;;;0.60;;
55015;SDS011;40919;43.236;21.590;2023-09-30T05:14:09;0.73;;;0.70;;
55015;SDS011;40919;43.236;21.590;2023-09-30T05:16:35;0.60;;;0.60;;
55015;SDS011;40919;43.236;21.590;2023-09-30T05:19:11;0.50;;;0.50;;
55015;SDS011;40919;43.236;21.590;2023-09-30T05:21:37;0.60;;;0.60;;
55015;SDS011;40919;43.236;21.590;2023-09-30T05:24:04;0.50;;;0.50;;
55015;SDS011;40919;43.236;21.590;2023-09-30T05:26:31;0.60;;;0.60;;
55015;SDS011;40919;43.236;21.590;2023-09-30T05:28:58;0.60;;;0.60;;
55015;SDS011;40919;43.236;21.590;2023-09-30T05:31:24;0.50;;;0.50;;
55015;SDS011;40919;43.236;21.590;2023-09-30T05:33:51;0.50;;;0.50;;
55015;SDS011;40919;43.236;21.590;2023-09-30T05:36:17;0.50;;;0.50;;
55015;SDS011;40919;43.236;21.590;2023-09-30T05:38:44;0.60;;;0.60;;
55015;SDS011;40919;43.236;21.590;2023-09-30T05:41:10;0.60;;;0.60;;
55015;SDS011;40919;43.236;21.590;2023-09-30T05:43:38;0.60;;;0.60;;
55015;SDS011;40919;43.236;21.590;2023-09-30T05:46:05;1.35;;;1.25;;
55015;SDS011;40919;43.236;21.590;2023-09-30T05:48:32;0.50;;;0.50;;
55015;SDS011;40919;43.236;21.590;2023-09-30T05:50:58;0.60;;;0.60;;
55015;SDS011;40919;43.236;21.590;2023-09-30T05:53:24;0.65;;;0.65;;
55015;SDS011;40919;43.236;21.590;2023-09-30T05:55:52;0.57;;;0.57;;
55015;SDS011;40919;43.236;21.590;2023-09-30T05:58:19;0.70;;;0.70;;
55015;SDS011;40919;43.236;21.590;2023-09-30T06:00:47;0.60;;;0.60;;
55015;SDS011;40919;43.236;21.590;2023-09-30T06:03:13;0.60;;;0.60;;
55015;SDS011;40919;43.236;21.590;2023-09-30T06:05:40;0.82;;;0.80;;
55015;SDS011;40919;43.236;21.590;2023-09-30T06:08:08;0.57;;;0.57;;
55015;SDS011;40919;43.236;21.590;2023-09-30T06:10:35;0.50;;;0.50;;
55015;SDS011;40919;43.236;21.590;2023-09-30T06:13:07;0.40;;;0.40;;
55015;SDS011;40919;43.236;21.590;2023-09-30T06:15:34;0.50;;;0.50;;
55015;SDS011;40919;43.236;21.590;2023-09-30T06:18:05;0.57;;;0.57;;
55015;SDS011;40919;43.236;21.590;2023-09-30T06:20:31;0.52;;;0.52;;
55015;SDS011;40919;43.236;21.590;2023-09-30T06:22:58;0.50;;;0.50;;
55015;SDS011;40919;43.236;21.590;2023-09-30T06:25:25;0.50;;;0.50;;
55015;SDS011;40919;43.236;21.590;2023-09-30T06:27:52;0.60;;;0.60;;
55015;SDS011;40919;43.236;21.590;2023-09-30T06:30:22;0.50;;;0.50;;
55015;SDS011;40919;43.236;21.590;2023-09-30T06:35:20;0.50;;;0.50;;
55015;SDS011;40919;43.236;21.590;2023-09-30T06:37:48;0.50;;;0.50;;
55015;SDS011;40919;43.236;21.590;2023-09-30T06:40:14;0.60;;;0.60;;
55015;SDS011;40919;43.236;21.590;2023-09-30T06:42:40;0.50;;;0.50;;
55015;SDS011;40919;43.236;21.590;2023-09-30T06:45:07;0.50;;;0.50;;
55015;SDS011;40919;43.236;21.590;2023-09-30T06:47:35;0.50;;;0.50;;
55015;SDS011;40919;43.236;21.590;2023-09-30T06:50:08;0.50;;;0.50;;
55015;SDS011;40919;43.236;21.590;2023-09-30T06:52:34;0.50;;;0.50;;
55015;SDS011;40919;43.236;21.590;2023-09-30T06:55:01;0.50;;;0.50;;
55015;SDS011;40919;43.236;21.590;2023-09-30T06:57:31;0.50;;;0.50;;
55015;SDS011;40919;43.236;21.590;2023-09-30T06:59:57;0.50;;;0.50;;
55015;SDS011;40919;43.236;21.590;2023-09-30T07:02:23;0.70;;;0.70;;
55015;SDS011;40919;43.236;21.590;2023-09-30T07:04:50;0.60;;;0.60;;
55015;SDS011;40919;43.236;21.590;2023-09-30T07:07:16;0.60;;;0.60;;
55015;SDS011;40919;43.236;21.590;2023-09-30T07:09:43;0.70;;;0.70;;
55015;SDS011;40919;43.236;21.590;2023-09-30T07:12:11;0.50;;;0.50;;
55015;SDS011;40919;43.236;21.590;2023-09-30T07:14:41;0.50;;;0.50;;
55015;SDS011;40919;43.236;21.590;2023-09-30T07:17:35;0.40;;;0.40;;
55015;SDS011;40919;43.236;21.590;2023-09-30T07:20:43;0.50;;;0.50;;
55015;SDS011;40919;43.236;21.590;2023-09-30T07:23:17;0.50;;;0.50;;
55015;SDS011;40919;43.236;21.590;2023-09-30T07:25:48;0.50;;;0.50;;
55015;SDS011;40919;43.236;21.590;2023-09-30T07:28:37;0.50;;;0.50;;
55015;SDS011;40919;43.236;21.590;2023-09-30T07:31:32;0.50;;;0.50;;
55015;SDS011;40919;43.236;21.590;2023-09-30T07:34:16;0.50;;;0.50;;
55015;SDS011;40919;43.236;21.590;2023-09-30T07:36:55;0.50;;;0.50;;
55015;SDS011;40919;43.236;21.590;2023-09-30T07:39:24;0.50;;;0.50;;
55015;SDS011;40919;43.236;21.590;2023-09-30T07:42:01;0.50;;;0.50;;
55015;SDS011;40919;43.236;21.590;2023-09-30T07:44:37;0.50;;;0.50;;
55015;SDS011;40919;43.236;21.590;2023-09-30T07:47:14;0.50;;;0.50;;
55015;SDS011;40919;43.236;21.590;2023-09-30T07:49:41;0.47;;;0.47;;
55015;SDS011;40919;43.236;21.590;2023-09-30T08:04:59;0.50;;;0.50;;
55015;SDS011;40919;43.236;21.590;2023-09-30T08:11:27;0.50;;;0.50;;
55015;SDS011;40919;43.236;21.590;2023-09-30T08:17:58;0.60;;;0.60;;
55015;SDS011;40919;43.236;21.590;2023-09-30T08:49:20;0.40;;;0.40;;
55015;SDS011;40919;43.236;21.590;2023-09-30T08:55:29;0.50;;;0.50;;
55015;SDS011;40919;43.236;21.590;2023-09-30T09:17:21;0.40;;;0.40;;
55015;SDS011;40919;43.236;21.590;2023-09-30T09:23:39;0.40;;;0.40;;
55015;SDS011;40919;43.236;21.590;2023-09-30T09:29:28;0.30;;;0.30;;
55015;SDS011;40919;43.236;21.590;2023-09-30T09:32:05;0.40;;;0.40;;
55015;SDS011;40919;43.236;21.590;2023-09-30T09:34:59;0.40;;;0.40;;
55015;SDS011;40919;43.236;21.590;2023-09-30T09:37:26;0.40;;;0.40;;
55015;SDS011;40919;43.236;21.590;2023-09-30T09:39:58;0.30;;;0.30;;
55015;SDS011;40919;43.236;21.590;2023-09-30T09:42:39;0.40;;;0.40;;
55015;SDS011;40919;43.236;21.590;2023-09-30T09:45:29;0.50;;;0.50;;
55015;SDS011;40919;43.236;21.590;2023-09-30T09:47:59;0.30;;;0.30;;
55015;SDS011;40919;43.236;21.590;2023-09-30T09:50:26;1.55;;;0.60;;
55015;SDS011;40919;43.236;21.590;2023-09-30T09:52:52;0.30;;;0.30;;
55015;SDS011;40919;43.236;21.590;2023-09-30T09:55:24;0.30;;;0.30;;
55015;SDS011;40919;43.236;21.590;2023-09-30T09:57:51;0.35;;;0.35;;
55015;SDS011;40919;43.236;21.590;2023-09-30T10:00:18;0.70;;;0.70;;
55015;SDS011;40919;43.236;21.590;2023-09-30T10:02:46;0.40;;;0.40;;
55015;SDS011;40919;43.236;21.590;2023-09-30T10:05:18;0.30;;;0.30;;
55015;SDS011;40919;43.236;21.590;2023-09-30T10:11:06;0.30;;;0.30;;
55015;SDS011;40919;43.236;21.590;2023-09-30T10:13:53;0.40;;;0.40;;
55015;SDS011;40919;43.236;21.590;2023-09-30T10:41:51;0.30;;;0.30;;
55015;SDS011;40919;43.236;21.590;2023-09-30T11:16:16;0.20;;;0.20;;
55015;SDS011;40919;43.236;21.590;2023-09-30T11:18:43;0.32;;;0.32;;
55015;SDS011;40919;43.236;21.590;2023-09-30T11:21:28;0.20;;;0.20;;
55015;SDS011;40919;43.236;21.590;2023-09-30T11:25:14;0.30;;;0.30;;
55015;SDS011;40919;43.236;21.590;2023-09-30T11:37:41;0.20;;;0.20;;
55015;SDS011;40919;43.236;21.590;2023-09-30T11:55:50;0.20;;;0.20;;
55015;SDS011;40919;43.236;21.590;2023-09-30T11:58:35;0.20;;;0.20;;
55015;SDS011;40919;43.236;21.590;2023-09-30T12:01:01;0.20;;;0.20;;
55015;SDS011;40919;43.236;21.590;2023-09-30T12:03:27;0.20;;;0.20;;
55015;SDS011;40919;43.236;21.590;2023-09-30T12:05:53;0.20;;;0.20;;
55015;SDS011;40919;43.236;21.590;2023-09-30T12:08:26;0.20;;;0.20;;
55015;SDS011;40919;43.236;21.590;2023-09-30T12:10:52;0.20;;;0.20;;
55015;SDS011;40919;43.236;21.590;2023-09-30T12:13:18;0.20;;;0.20;;
55015;SDS011;40919;43.236;21.590;2023-09-30T12:15:45;0.20;;;0.20;;
55015;SDS011;40919;43.236;21.590;2023-09-30T12:18:11;0.20;;;0.20;;
55015;SDS011;40919;43.236;21.590;2023-09-30T12:20:42;0.20;;;0.20;;
55015;SDS011;40919;43.236;21.590;2023-09-30T12:23:09;0.20;;;0.20;;
55015;SDS011;40919;43.236;21.590;2023-09-30T12:25:35;0.20;;;0.20;;
55015;SDS011;40919;43.236;21.590;2023-09-30T12:28:02;0.20;;;0.20;;
55015;SDS011;40919;43.236;21.590;2023-09-30T12:30:28;0.20;;;0.20;;
55015;SDS011;40919;43.236;21.590;2023-09-30T12:32:57;0.20;;;0.20;;
55015;SDS011;40919;43.236;21.590;2023-09-30T12:35:23;0.20;;;0.20;;
55015;SDS011;40919;43.236;21.590;2023-09-30T12:37:50;0.20;;;0.20;;
55015;SDS011;40919;43.236;21.590;2023-09-30T12:40:16;0.10;;;0.10;;
55015;SDS011;40919;43.236;21.590;2023-09-30T12:42:43;0.20;;;0.20;;
55015;SDS011;40919;43.236;21.590;2023-09-30T12:45:10;0.20;;;0.20;;
55015;SDS011;40919;43.236;21.590;2023-09-30T12:47:37;0.20;;;0.20;;
55015;SDS011;40919;43.236;21.590;2023-09-30T12:50:03;0.20;;;0.20;;
55015;SDS011;40919;43.236;21.590;2023-09-30T12:52:30;0.20;;;0.20;;
55015;SDS011;40919;43.236;21.590;2023-09-30T12:54:57;0.20;;;0.20;;
55015;SDS011;40919;43.236;21.590;2023-09-30T12:57:24;0.20;;;0.20;;
55015;SDS011;40919;43.236;21.590;2023-09-30T12:59:51;0.20;;;0.20;;
55015;SDS011;40919;43.236;21.590;2023-09-30T13:02:18;0.20;;;0.20;;
55015;SDS011;40919;43.236;21.590;2023-09-30T13:04:46;0.20;;;0.20;;
55015;SDS011;40919;43.236;21.590;2023-09-30T13:07:12;0.20;;;0.20;;
55015;SDS011;40919;43.236;21.590;2023-09-30T13:09:38;0.20;;;0.20;;
55015;SDS011;40919;43.236;21.590;2023-09-30T13:12:05;0.20;;;0.20;;
55015;SDS011;40919;43.236;21.590;2023-09-30T13:14:32;0.20;;;0.20;;
55015;SDS011;40919;43.236;21.590;2023-09-30T13:16:58;0.20;;;0.20;;
55015;SDS011;40919;43.236;21.590;2023-09-30T13:19:24;0.20;;;0.20;;
55015;SDS011;40919;43.236;21.590;2023-09-30T13:21:51;0.20;;;0.20;;
55015;SDS011;40919;43.236;21.590;2023-09-30T13:24:21;0.20;;;0.20;;
55015;SDS011;40919;43.236;21.590;2023-09-30T13:26:48;0.20;;;0.20;;
55015;SDS011;40919;43.236;21.590;2023-09-30T13:29:17;0.20;;;0.20;;
55015;SDS011;40919;43.236;21.590;2023-09-30T13:31:43;0.10;;;0.10;;
55015;SDS011;40919;43.236;21.590;2023-09-30T13:34:10;0.20;;;0.20;;
55015;SDS011;40919;43.236;21.590;2023-09-30T13:36:39;0.45;;;0.20;;
55015;SDS011;40919;43.236;21.590;2023-09-30T13:39:05;0.10;;;0.10;;
55015;SDS011;40919;43.236;21.590;2023-09-30T13:41:35;0.10;;;0.10;;
55015;SDS011;40919;43.236;21.590;2023-09-30T13:44:01;0.20;;;0.20;;
55015;SDS011;40919;43.236;21.590;2023-09-30T13:46:27;0.20;;;0.20;;
55015;SDS011;40919;43.236;21.590;2023-09-30T13:49:12;0.20;;;0.20;;
55015;SDS011;40919;43.236;21.590;2023-09-30T13:51:39;0.10;;;0.10;;
55015;SDS011;40919;43.236;21.590;2023-09-30T13:54:28;0.20;;;0.20;;
55015;SDS011;40919;43.236;21.590;2023-09-30T13:57:45;0.13;;;0.13;;
55015;SDS011;40919;43.236;21.590;2023-09-30T14:03:49;0.30;;;0.30;;
55015;SDS011;40919;43.236;21.590;2023-09-30T14:25:34;0.20;;;0.20;;
55015;SDS011;40919;43.236;21.590;2023-09-30T14:34:04;0.20;;;0.20;;
55015;SDS011;40919;43.236;21.590;2023-09-30T14:36:58;0.20;;;0.20;;
55015;SDS011;40919;43.236;21.590;2023-09-30T14:49:55;0.30;;;0.30;;
55015;SDS011;40919;43.236;21.590;2023-09-30T14:52:54;0.28;;;0.28;;
55015;SDS011;40919;43.236;21.590;2023-09-30T14:59:08;0.20;;;0.20;;
55015;SDS011;40919;43.236;21.590;2023-09-30T15:05:42;0.30;;;0.30;;
55015;SDS011;40919;43.236;21.590;2023-09-30T15:08:46;0.30;;;0.30;;
55015;SDS011;40919;43.236;21.590;2023-09-30T15:18:19;0.20;;;0.20;;
55015;SDS011;40919;43.236;21.590;2023-09-30T15:50:10;0.30;;;0.30;;
55015;SDS011;40919;43.236;21.590;2023-09-30T15:56:30;0.20;;;0.20;;
55015;SDS011;40919;43.236;21.590;2023-09-30T15:59:35;0.30;;;0.30;;
55015;SDS011;40919;43.236;21.590;2023-09-30T16:05:44;0.28;;;0.28;;
55015;SDS011;40919;43.236;21.590;2023-09-30T16:08:43;0.30;;;0.30;;
55015;SDS011;40919;43.236;21.590;2023-09-30T16:11:49;0.30;;;0.30;;
55015;SDS011;40919;43.236;21.590;2023-09-30T16:18:17;0.22;;;0.22;;
55015;SDS011;40919;43.236;21.590;2023-09-30T16:21:21;0.30;;;0.30;;
55015;SDS011;40919;43.236;21.590;2023-09-30T16:27:21;0.30;;;0.30;;
55015;SDS011;40919;43.236;21.590;2023-09-30T16:43:17;0.30;;;0.30;;
55015;SDS011;40919;43.236;21.590;2023-09-30T16:46:35;0.30;;;0.30;;
55015;SDS011;40919;43.236;21.590;2023-09-30T16:55:55;0.30;;;0.30;;
55015;SDS011;40919;43.236;21.590;2023-09-30T16:59:06;0.30;;;0.30;;
55015;SDS011;40919;43.236;21.590;2023-09-30T17:02:18;0.30;;;0.30;;
55015;SDS011;40919;43.236;21.590;2023-09-30T17:05:02;0.30;;;0.30;;
55015;SDS011;40919;43.236;21.590;2023-09-30T17:08:01;0.30;;;0.30;;
55015;SDS011;40919;43.236;21.590;2023-09-30T17:10:54;0.75;;;0.73;;
55015;SDS011;40919;43.236;21.590;2023-09-30T17:16:17;0.30;;;0.30;;
55015;SDS011;40919;43.236;21.590;2023-09-30T17:19:34;0.30;;;0.30;;
55015;SDS011;40919;43.236;21.590;2023-09-30T17:22:42;0.35;;;0.35;;
55015;SDS011;40919;43.236;21.590;2023-09-30T17:25:59;0.30;;;0.30;;
55015;SDS011;40919;43.236;21.590;2023-09-30T17:31:56;0.40;;;0.40;;
55015;SDS011;40919;43.236;21.590;2023-09-30T17:34:44;0.40;;;0.40;;
55015;SDS011;40919;43.236;21.590;2023-09-30T17:41:24;0.40;;;0.40;;
55015;SDS011;40919;43.236;21.590;2023-09-30T17:48:06;0.30;;;0.30;;
55015;SDS011;40919;43.236;21.590;2023-09-30T17:57:26;0.35;;;0.35;;
55015;SDS011;40919;43.236;21.590;2023-09-30T18:00:36;0.30;;;0.30;;
55015;SDS011;40919;43.236;21.590;2023-09-30T18:04:06;0.40;;;0.40;;
55015;SDS011;40919;43.236;21.590;2023-09-30T18:10:29;0.30;;;0.30;;
55015;SDS011;40919;43.236;21.590;2023-09-30T18:16:22;0.40;;;0.40;;
55015;SDS011;40919;43.236;21.590;2023-09-30T18:19:34;0.30;;;0.30;;
55015;SDS011;40919;43.236;21.590;2023-09-30T18:26:03;0.30;;;0.30;;
55015;SDS011;40919;43.236;21.590;2023-09-30T18:29:00;0.40;;;0.40;;
55015;SDS011;40919;43.236;21.590;2023-09-30T18:32:17;0.30;;;0.30;;
55015;SDS011;40919;43.236;21.590;2023-09-30T18:41:19;0.40;;;0.40;;
55015;SDS011;40919;43.236;21.590;2023-09-30T18:43:59;0.30;;;0.30;;
55015;SDS011;40919;43.236;21.590;2023-09-30T18:47:10;0.30;;;0.30;;
55015;SDS011;40919;43.236;21.590;2023-09-30T18:52:55;0.30;;;0.30;;
55015;SDS011;40919;43.236;21.590;2023-09-30T18:55:21;0.40;;;0.40;;
55015;SDS011;40919;43.236;21.590;2023-09-30T18:58:35;0.40;;;0.40;;
55015;SDS011;40919;43.236;21.590;2023-09-30T19:01:33;0.40;;;0.40;;
55015;SDS011;40919;43.236;21.590;2023-09-30T19:04:34;0.40;;;0.40;;
55015;SDS011;40919;43.236;21.590;2023-09-30T19:07:12;0.40;;;0.40;;
55015;SDS011;40919;43.236;21.590;2023-09-30T19:10:02;0.35;;;0.35;;
55015;SDS011;40919;43.236;21.590;2023-09-30T19:12:54;0.30;;;0.30;;
55015;SDS011;40919;43.236;21.590;2023-09-30T19:15:42;0.40;;;0.40;;
55015;SDS011;40919;43.236;21.590;2023-09-30T19:18:50;0.40;;;0.40;;
55015;SDS011;40919;43.236;21.590;2023-09-30T19:21:28;0.40;;;0.40;;
55015;SDS011;40919;43.236;21.590;2023-09-30T19:27:37;0.40;;;0.40;;
55015;SDS011;40919;43.236;21.590;2023-09-30T19:30:47;0.50;;;0.50;;
55015;SDS011;40919;43.236;21.590;2023-09-30T19:33:38;0.40;;;0.40;;
55015;SDS011;40919;43.236;21.590;2023-09-30T19:39:18;0.40;;;0.40;;
55015;SDS011;40919;43.236;21.590;2023-09-30T19:42:22;0.47;;;0.47;;
55015;SDS011;40919;43.236;21.590;2023-09-30T19:51:27;0.50;;;0.50;;
55015;SDS011;40919;43.236;21.590;2023-09-30T19:54:41;0.40;;;0.40;;
55015;SDS011;40919;43.236;21.590;2023-09-30T20:04:06;0.40;;;0.40;;
55015;SDS011;40919;43.236;21.590;2023-09-30T20:07:17;0.40;;;0.40;;
55015;SDS011;40919;43.236;21.590;2023-09-30T20:10:07;0.40;;;0.40;;
55015;SDS011;40919;43.236;21.590;2023-09-30T20:13:32;0.30;;;0.30;;
55015;SDS011;40919;43.236;21.590;2023-09-30T20:16:36;0.40;;;0.40;;
55015;SDS011;40919;43.236;21.590;2023-09-30T20:19:12;0.40;;;0.40;;
55015;SDS011;40919;43.236;21.590;2023-09-30T20:22:07;0.40;;;0.40;;
55015;SDS011;40919;43.236;21.590;2023-09-30T20:31:33;0.50;;;0.50;;
55015;SDS011;40919;43.236;21.590;2023-09-30T20:34:42;0.50;;;0.50;;
55015;SDS011;40919;43.236;21.590;2023-09-30T20:43:52;0.40;;;0.40;;
55015;SDS011;40919;43.236;21.590;2023-09-30T20:46:39;0.40;;;0.40;;
55015;SDS011;40919;43.236;21.590;2023-09-30T20:50:06;0.40;;;0.40;;
55015;SDS011;40919;43.236;21.590;2023-09-30T20:56:26;0.40;;;0.40;;
55015;SDS011;40919;43.236;21.590;2023-09-30T20:59:35;0.38;;;0.38;;
55015;SDS011;40919;43.236;21.590;2023-09-30T21:02:58;0.50;;;0.50;;
55015;SDS011;40919;43.236;21.590;2023-09-30T21:06:19;0.40;;;0.40;;
55015;SDS011;40919;43.236;21.590;2023-09-30T21:09:10;0.40;;;0.40;;
55015;SDS011;40919;43.236;21.590;2023-09-30T21:12:15;0.40;;;0.40;;
55015;SDS011;40919;43.236;21.590;2023-09-30T21:15:11;0.40;;;0.40;;
55015;SDS011;40919;43.236;21.590;2023-09-30T21:18:15;0.43;;;0.43;;
55015;SDS011;40919;43.236;21.590;2023-09-30T21:21:02;0.40;;;0.40;;